sensor_id;sensor_type;location;lat;lon;timestamp;temperature;humidity
16966;DHT22;8599;47.852;12.070;2023-05-10T00:01:16;15.80;99.90
16966;DHT22;8599;47.852;12.070;2023-05-10T00:03:43;15.80;99.90
16966;DHT22;8599;47.852;12.070;2023-05-10T00:06:10;15.80;99.90
16966;DHT22;8599;47.852;12.070;2023-05-10T00:08:37;15.70;99.90
16966;DHT22;8599;47.852;12.070;2023-05-10T00:11:04;15.70;99.90
16966;DHT22;8599;47.852;12.070;2023-05-10T00:13:32;15.70;99.90
16966;DHT22;8599;47.852;12.070;2023-05-10T00:15:59;15.70;99.90
16966;DHT22;8599;47.852;12.070;2023-05-10T00:18:26;15.70;99.90
16966;DHT22;8599;47.852;12.070;2023-05-10T00:20:53;15.70;99.90
16966;DHT22;8599;47.852;12.070;2023-05-10T00:23:19;15.70;99.90
16966;DHT22;8599;47.852;12.070;2023-05-10T00:25:46;15.60;99.90
16966;DHT22;8599;47.852;12.070;2023-05-10T00:28:13;15.60;99.90
16966;DHT22;8599;47.852;12.070;2023-05-10T00:30:41;15.60;99.90
16966;DHT22;8599;47.852;12.070;2023-05-10T00:33:08;15.60;99.90
16966;DHT22;8599;47.852;12.070;2023-05-10T00:35:35;15.60;99.90
16966;DHT22;8599;47.852;12.070;2023-05-10T00:38:01;15.60;99.90
16966;DHT22;8599;47.852;12.070;2023-05-10T00:40:29;15.60;99.90
16966;DHT22;8599;47.852;12.070;2023-05-10T00:42:56;15.60;99.90
16966;DHT22;8599;47.852;12.070;2023-05-10T00:45:22;15.50;99.90
16966;DHT22;8599;47.852;12.070;2023-05-10T00:47:51;15.60;99.90
16966;DHT22;8599;47.852;12.070;2023-05-10T00:50:20;15.40;99.90
16966;DHT22;8599;47.852;12.070;2023-05-10T00:52:47;15.50;99.90
16966;DHT22;8599;47.852;12.070;2023-05-10T00:55:14;15.50;99.90
16966;DHT22;8599;47.852;12.070;2023-05-10T00:57:41;15.50;99.90
16966;DHT22;8599;47.852;12.070;2023-05-10T01:00:09;15.50;99.90
16966;DHT22;8599;47.852;12.070;2023-05-10T01:02:36;15.50;99.90
16966;DHT22;8599;47.852;12.070;2023-05-10T01:05:05;15.50;99.90
16966;DHT22;8599;47.852;12.070;2023-05-10T01:07:32;15.50;99.90
16966;DHT22;8599;47.852;12.070;2023-05-10T01:09:59;15.50;99.90
16966;DHT22;8599;47.852;12.070;2023-05-10T01:12:26;15.50;99.90
16966;DHT22;8599;47.852;12.070;2023-05-10T01:14:54;15.50;99.90
16966;DHT22;8599;47.852;12.070;2023-05-10T01:17:22;15.50;99.90
16966;DHT22;8599;47.852;12.070;2023-05-10T01:19:49;15.50;99.90
16966;DHT22;8599;47.852;12.070;2023-05-10T01:22:39;15.40;99.90
16966;DHT22;8599;47.852;12.070;2023-05-10T01:25:36;15.40;99.90
16966;DHT22;8599;47.852;12.070;2023-05-10T01:28:17;15.40;99.90
16966;DHT22;8599;47.852;12.070;2023-05-10T01:31:08;15.30;99.90
16966;DHT22;8599;47.852;12.070;2023-05-10T01:33:47;15.40;99.90
16966;DHT22;8599;47.852;12.070;2023-05-10T01:36:24;15.40;99.90
16966;DHT22;8599;47.852;12.070;2023-05-10T01:38:58;15.40;99.90
16966;DHT22;8599;47.852;12.070;2023-05-10T01:41:28;15.40;99.90
16966;DHT22;8599;47.852;12.070;2023-05-10T01:44:03;15.30;99.90
16966;DHT22;8599;47.852;12.070;2023-05-10T01:46:35;15.30;99.90
16966;DHT22;8599;47.852;12.070;2023-05-10T01:49:08;15.30;99.90
16966;DHT22;8599;47.852;12.070;2023-05-10T01:51:40;15.30;99.90
16966;DHT22;8599;47.852;12.070;2023-05-10T01:54:09;15.20;99.90
16966;DHT22;8599;47.852;12.070;2023-05-10T01:56:38;15.20;99.90
16966;DHT22;8599;47.852;12.070;2023-05-10T01:59:08;15.20;99.90
16966;DHT22;8599;47.852;12.070;2023-05-10T02:01:36;15.10;99.90
16966;DHT22;8599;47.852;12.070;2023-05-10T02:04:06;15.20;99.90
16966;DHT22;8599;47.852;12.070;2023-05-10T02:06:34;15.20;99.90
16966;DHT22;8599;47.852;12.070;2023-05-10T02:09:01;15.10;99.90
16966;DHT22;8599;47.852;12.070;2023-05-10T02:11:29;15.10;99.90
16966;DHT22;8599;47.852;12.070;2023-05-10T02:13:58;15.20;99.90
16966;DHT22;8599;47.852;12.070;2023-05-10T02:16:26;15.30;99.90
16966;DHT22;8599;47.852;12.070;2023-05-10T02:18:57;15.40;99.90
16966;DHT22;8599;47.852;12.070;2023-05-10T02:21:27;15.30;99.90
16966;DHT22;8599;47.852;12.070;2023-05-10T02:23:55;15.10;99.90
16966;DHT22;8599;47.852;12.070;2023-05-10T02:26:24;15.10;99.90
16966;DHT22;8599;47.852;12.070;2023-05-10T02:28:52;15.10;99.90
16966;DHT22;8599;47.852;12.070;2023-05-10T02:31:21;15.10;99.90
16966;DHT22;8599;47.852;12.070;2023-05-10T02:33:48;15.10;99.90
16966;DHT22;8599;47.852;12.070;2023-05-10T02:36:16;15.10;99.90
16966;DHT22;8599;47.852;12.070;2023-05-10T02:38:45;15.00;99.90
16966;DHT22;8599;47.852;12.070;2023-05-10T02:41:14;15.00;99.90
16966;DHT22;8599;47.852;12.070;2023-05-10T02:43:42;15.00;99.90
16966;DHT22;8599;47.852;12.070;2023-05-10T02:46:09;15.00;99.90
16966;DHT22;8599;47.852;12.070;2023-05-10T02:48:36;15.00;99.90
16966;DHT22;8599;47.852;12.070;2023-05-10T02:51:05;15.00;99.90
16966;DHT22;8599;47.852;12.070;2023-05-10T02:53:36;15.00;99.90
16966;DHT22;8599;47.852;12.070;2023-05-10T02:56:13;14.90;99.90
16966;DHT22;8599;47.852;12.070;2023-05-10T02:58:42;14.90;99.90
16966;DHT22;8599;47.852;12.070;2023-05-10T03:01:09;14.90;99.90
16966;DHT22;8599;47.852;12.070;2023-05-10T03:03:36;14.80;99.90
16966;DHT22;8599;47.852;12.070;2023-05-10T03:06:03;14.90;99.90
16966;DHT22;8599;47.852;12.070;2023-05-10T03:08:30;14.90;99.90
16966;DHT22;8599;47.852;12.070;2023-05-10T03:11:15;14.90;99.90
16966;DHT22;8599;47.852;12.070;2023-05-10T03:13:48;14.90;99.90
16966;DHT22;8599;47.852;12.070;2023-05-10T03:16:24;14.80;99.90
16966;DHT22;8599;47.852;12.070;2023-05-10T03:19:00;14.80;99.90
16966;DHT22;8599;47.852;12.070;2023-05-10T03:21:29;14.80;99.90
16966;DHT22;8599;47.852;12.070;2023-05-10T03:23:59;14.90;99.90
16966;DHT22;8599;47.852;12.070;2023-05-10T03:26:31;14.90;99.90
16966;DHT22;8599;47.852;12.070;2023-05-10T03:28:58;14.80;99.90
16966;DHT22;8599;47.852;12.070;2023-05-10T03:31:26;14.80;99.90
16966;DHT22;8599;47.852;12.070;2023-05-10T03:33:52;14.70;99.90
16966;DHT22;8599;47.852;12.070;2023-05-10T03:36:19;14.90;99.90
16966;DHT22;8599;47.852;12.070;2023-05-10T03:38:46;14.70;99.90
16966;DHT22;8599;47.852;12.070;2023-05-10T03:41:13;14.70;99.90
16966;DHT22;8599;47.852;12.070;2023-05-10T03:43:41;14.60;99.90
16966;DHT22;8599;47.852;12.070;2023-05-10T03:46:08;14.70;99.90
16966;DHT22;8599;47.852;12.070;2023-05-10T03:48:35;14.70;99.90
16966;DHT22;8599;47.852;12.070;2023-05-10T03:51:02;14.70;99.90
16966;DHT22;8599;47.852;12.070;2023-05-10T03:53:28;14.60;99.90
16966;DHT22;8599;47.852;12.070;2023-05-10T03:55:55;14.50;99.90
16966;DHT22;8599;47.852;12.070;2023-05-10T03:58:22;14.60;99.90
16966;DHT22;8599;47.852;12.070;2023-05-10T04:00:50;14.60;99.90
16966;DHT22;8599;47.852;12.070;2023-05-10T04:03:17;14.60;99.90
16966;DHT22;8599;47.852;12.070;2023-05-10T04:05:45;14.60;99.90
16966;DHT22;8599;47.852;12.070;2023-05-10T04:08:12;14.60;99.90
16966;DHT22;8599;47.852;12.070;2023-05-10T04:10:40;14.60;99.90
16966;DHT22;8599;47.852;12.070;2023-05-10T04:13:07;14.50;99.90
16966;DHT22;8599;47.852;12.070;2023-05-10T04:15:33;14.60;99.90
16966;DHT22;8599;47.852;12.070;2023-05-10T04:18:02;14.60;99.90
16966;DHT22;8599;47.852;12.070;2023-05-10T04:20:29;14.60;99.90
16966;DHT22;8599;47.852;12.070;2023-05-10T04:22:55;14.60;99.90
16966;DHT22;8599;47.852;12.070;2023-05-10T04:25:22;14.60;99.90
16966;DHT22;8599;47.852;12.070;2023-05-10T04:27:49;14.60;99.90
16966;DHT22;8599;47.852;12.070;2023-05-10T04:30:16;14.70;99.90
16966;DHT22;8599;47.852;12.070;2023-05-10T04:32:43;14.70;99.90
16966;DHT22;8599;47.852;12.070;2023-05-10T04:35:11;14.60;99.90
16966;DHT22;8599;47.852;12.070;2023-05-10T04:37:40;14.60;99.90
16966;DHT22;8599;47.852;12.070;2023-05-10T04:40:08;14.60;99.90
16966;DHT22;8599;47.852;12.070;2023-05-10T04:42:35;14.60;99.90
16966;DHT22;8599;47.852;12.070;2023-05-10T04:45:02;14.60;99.90
16966;DHT22;8599;47.852;12.070;2023-05-10T04:47:29;14.70;99.90
16966;DHT22;8599;47.852;12.070;2023-05-10T04:49:55;14.70;99.90
16966;DHT22;8599;47.852;12.070;2023-05-10T04:52:24;14.60;99.90
16966;DHT22;8599;47.852;12.070;2023-05-10T04:54:51;14.70;99.90
16966;DHT22;8599;47.852;12.070;2023-05-10T04:57:18;14.70;99.90
16966;DHT22;8599;47.852;12.070;2023-05-10T04:59:45;14.70;99.90
16966;DHT22;8599;47.852;12.070;2023-05-10T05:02:11;14.70;99.90
16966;DHT22;8599;47.852;12.070;2023-05-10T05:04:38;14.70;99.90
16966;DHT22;8599;47.852;12.070;2023-05-10T05:07:05;14.90;99.90
16966;DHT22;8599;47.852;12.070;2023-05-10T05:09:33;14.70;99.90
16966;DHT22;8599;47.852;12.070;2023-05-10T05:12:00;14.60;99.90
16966;DHT22;8599;47.852;12.070;2023-05-10T05:14:27;14.60;99.90
16966;DHT22;8599;47.852;12.070;2023-05-10T05:16:53;14.70;99.90
16966;DHT22;8599;47.852;12.070;2023-05-10T05:19:21;14.60;99.90
16966;DHT22;8599;47.852;12.070;2023-05-10T05:21:48;14.50;99.90
16966;DHT22;8599;47.852;12.070;2023-05-10T05:24:15;14.50;99.90
16966;DHT22;8599;47.852;12.070;2023-05-10T05:26:43;14.60;99.90
16966;DHT22;8599;47.852;12.070;2023-05-10T05:29:10;14.60;99.90
16966;DHT22;8599;47.852;12.070;2023-05-10T05:31:37;14.60;99.90
16966;DHT22;8599;47.852;12.070;2023-05-10T05:34:04;14.60;99.90
16966;DHT22;8599;47.852;12.070;2023-05-10T05:36:30;14.70;99.90
16966;DHT22;8599;47.852;12.070;2023-05-10T05:38:58;14.60;99.90
16966;DHT22;8599;47.852;12.070;2023-05-10T05:41:25;14.60;99.90
16966;DHT22;8599;47.852;12.070;2023-05-10T05:43:53;14.60;99.90
16966;DHT22;8599;47.852;12.070;2023-05-10T05:46:19;14.70;99.90
16966;DHT22;8599;47.852;12.070;2023-05-10T05:48:46;14.80;99.90
16966;DHT22;8599;47.852;12.070;2023-05-10T05:51:13;14.70;99.90
16966;DHT22;8599;47.852;12.070;2023-05-10T05:53:40;14.70;99.90
16966;DHT22;8599;47.852;12.070;2023-05-10T05:56:07;14.70;99.90
16966;DHT22;8599;47.852;12.070;2023-05-10T05:58:34;14.60;99.90
16966;DHT22;8599;47.852;12.070;2023-05-10T06:01:03;14.70;99.90
16966;DHT22;8599;47.852;12.070;2023-05-10T06:03:29;14.70;99.90
16966;DHT22;8599;47.852;12.070;2023-05-10T06:05:56;14.70;99.90
16966;DHT22;8599;47.852;12.070;2023-05-10T06:08:23;14.60;99.90
16966;DHT22;8599;47.852;12.070;2023-05-10T06:10:51;14.50;99.90
16966;DHT22;8599;47.852;12.070;2023-05-10T06:13:17;14.60;99.90
16966;DHT22;8599;47.852;12.070;2023-05-10T06:15:44;14.50;99.90
16966;DHT22;8599;47.852;12.070;2023-05-10T06:18:13;14.50;99.90
16966;DHT22;8599;47.852;12.070;2023-05-10T06:20:41;14.50;99.90
16966;DHT22;8599;47.852;12.070;2023-05-10T06:23:08;14.40;99.90
16966;DHT22;8599;47.852;12.070;2023-05-10T06:25:35;14.40;99.90
16966;DHT22;8599;47.852;12.070;2023-05-10T06:28:02;14.30;99.90
16966;DHT22;8599;47.852;12.070;2023-05-10T06:30:29;14.30;99.90
16966;DHT22;8599;47.852;12.070;2023-05-10T06:32:56;14.30;99.90
16966;DHT22;8599;47.852;12.070;2023-05-10T06:35:24;14.20;99.90
16966;DHT22;8599;47.852;12.070;2023-05-10T06:37:51;14.30;99.90
16966;DHT22;8599;47.852;12.070;2023-05-10T06:40:18;14.40;99.90
16966;DHT22;8599;47.852;12.070;2023-05-10T06:42:45;14.40;99.90
16966;DHT22;8599;47.852;12.070;2023-05-10T06:45:12;14.40;99.90
16966;DHT22;8599;47.852;12.070;2023-05-10T06:47:39;14.40;99.90
16966;DHT22;8599;47.852;12.070;2023-05-10T06:50:07;14.40;99.90
16966;DHT22;8599;47.852;12.070;2023-05-10T06:52:35;14.40;99.90
16966;DHT22;8599;47.852;12.070;2023-05-10T06:55:03;14.40;99.90
16966;DHT22;8599;47.852;12.070;2023-05-10T06:57:30;14.40;99.90
16966;DHT22;8599;47.852;12.070;2023-05-10T06:59:57;14.30;99.90
16966;DHT22;8599;47.852;12.070;2023-05-10T07:02:24;14.40;99.90
16966;DHT22;8599;47.852;12.070;2023-05-10T07:04:51;14.30;99.90
16966;DHT22;8599;47.852;12.070;2023-05-10T07:07:18;14.10;99.90
16966;DHT22;8599;47.852;12.070;2023-05-10T07:09:46;14.00;99.90
16966;DHT22;8599;47.852;12.070;2023-05-10T07:12:14;13.90;99.90
16966;DHT22;8599;47.852;12.070;2023-05-10T07:14:41;13.80;99.90
16966;DHT22;8599;47.852;12.070;2023-05-10T07:17:08;13.70;99.90
16966;DHT22;8599;47.852;12.070;2023-05-10T07:19:35;13.60;99.90
16966;DHT22;8599;47.852;12.070;2023-05-10T07:22:02;13.50;99.90
16966;DHT22;8599;47.852;12.070;2023-05-10T07:24:28;13.50;99.90
16966;DHT22;8599;47.852;12.070;2023-05-10T07:26:57;13.50;99.90
16966;DHT22;8599;47.852;12.070;2023-05-10T07:29:25;13.40;99.90
16966;DHT22;8599;47.852;12.070;2023-05-10T07:31:52;13.40;99.90
16966;DHT22;8599;47.852;12.070;2023-05-10T07:34:18;13.40;99.90
16966;DHT22;8599;47.852;12.070;2023-05-10T07:36:47;13.30;99.90
16966;DHT22;8599;47.852;12.070;2023-05-10T07:39:16;13.40;99.90
16966;DHT22;8599;47.852;12.070;2023-05-10T07:41:46;13.30;99.90
16966;DHT22;8599;47.852;12.070;2023-05-10T07:44:15;13.30;99.90
16966;DHT22;8599;47.852;12.070;2023-05-10T07:46:44;13.30;99.90
16966;DHT22;8599;47.852;12.070;2023-05-10T07:49:12;13.20;99.90
16966;DHT22;8599;47.852;12.070;2023-05-10T07:51:39;13.10;99.90
16966;DHT22;8599;47.852;12.070;2023-05-10T07:54:06;13.20;99.90
16966;DHT22;8599;47.852;12.070;2023-05-10T07:56:33;13.10;99.90
16966;DHT22;8599;47.852;12.070;2023-05-10T07:59:00;13.10;99.90
16966;DHT22;8599;47.852;12.070;2023-05-10T08:01:31;13.00;99.90
16966;DHT22;8599;47.852;12.070;2023-05-10T08:03:58;13.10;99.90
16966;DHT22;8599;47.852;12.070;2023-05-10T08:06:25;13.20;99.90
16966;DHT22;8599;47.852;12.070;2023-05-10T08:08:53;13.40;99.90
16966;DHT22;8599;47.852;12.070;2023-05-10T08:11:21;13.50;99.90
16966;DHT22;8599;47.852;12.070;2023-05-10T08:13:49;13.70;99.90
16966;DHT22;8599;47.852;12.070;2023-05-10T08:16:16;13.80;99.90
16966;DHT22;8599;47.852;12.070;2023-05-10T08:18:45;13.80;99.90
16966;DHT22;8599;47.852;12.070;2023-05-10T08:21:12;13.90;99.90
16966;DHT22;8599;47.852;12.070;2023-05-10T08:23:39;13.90;99.90
16966;DHT22;8599;47.852;12.070;2023-05-10T08:26:06;14.10;99.90
16966;DHT22;8599;47.852;12.070;2023-05-10T08:28:33;14.30;99.90
16966;DHT22;8599;47.852;12.070;2023-05-10T08:31:00;14.50;99.90
16966;DHT22;8599;47.852;12.070;2023-05-10T08:33:27;14.80;99.90
16966;DHT22;8599;47.852;12.070;2023-05-10T08:35:55;14.90;99.90
16966;DHT22;8599;47.852;12.070;2023-05-10T08:38:22;15.00;99.90
16966;DHT22;8599;47.852;12.070;2023-05-10T08:40:49;15.20;99.90
16966;DHT22;8599;47.852;12.070;2023-05-10T08:43:21;15.20;99.90
16966;DHT22;8599;47.852;12.070;2023-05-10T08:45:53;15.40;99.90
16966;DHT22;8599;47.852;12.070;2023-05-10T08:48:23;15.60;99.90
16966;DHT22;8599;47.852;12.070;2023-05-10T08:50:52;15.70;99.90
16966;DHT22;8599;47.852;12.070;2023-05-10T08:53:24;15.80;99.90
16966;DHT22;8599;47.852;12.070;2023-05-10T08:55:53;15.70;99.90
16966;DHT22;8599;47.852;12.070;2023-05-10T08:58:19;15.80;99.90
16966;DHT22;8599;47.852;12.070;2023-05-10T09:00:48;15.60;99.90
16966;DHT22;8599;47.852;12.070;2023-05-10T09:03:15;15.40;99.90
16966;DHT22;8599;47.852;12.070;2023-05-10T09:05:42;15.30;99.90
16966;DHT22;8599;47.852;12.070;2023-05-10T09:08:10;15.20;99.90
16966;DHT22;8599;47.852;12.070;2023-05-10T09:10:40;15.10;99.90
16966;DHT22;8599;47.852;12.070;2023-05-10T09:13:10;15.10;99.90
16966;DHT22;8599;47.852;12.070;2023-05-10T09:15:37;15.00;99.90
16966;DHT22;8599;47.852;12.070;2023-05-10T09:18:04;15.00;99.90
16966;DHT22;8599;47.852;12.070;2023-05-10T09:20:31;15.00;99.90
16966;DHT22;8599;47.852;12.070;2023-05-10T09:22:58;15.00;99.90
16966;DHT22;8599;47.852;12.070;2023-05-10T09:25:25;15.00;99.90
16966;DHT22;8599;47.852;12.070;2023-05-10T09:27:53;14.90;99.90
16966;DHT22;8599;47.852;12.070;2023-05-10T09:30:24;14.90;99.90
16966;DHT22;8599;47.852;12.070;2023-05-10T09:32:52;15.00;99.90
16966;DHT22;8599;47.852;12.070;2023-05-10T09:35:21;15.00;99.90
16966;DHT22;8599;47.852;12.070;2023-05-10T09:37:50;15.10;99.90
16966;DHT22;8599;47.852;12.070;2023-05-10T09:40:18;15.10;99.90
16966;DHT22;8599;47.852;12.070;2023-05-10T09:42:53;15.10;99.90
16966;DHT22;8599;47.852;12.070;2023-05-10T09:45:20;15.20;99.90
16966;DHT22;8599;47.852;12.070;2023-05-10T09:47:47;15.10;99.90
16966;DHT22;8599;47.852;12.070;2023-05-10T09:50:14;15.20;99.90
16966;DHT22;8599;47.852;12.070;2023-05-10T09:52:49;15.30;99.90
16966;DHT22;8599;47.852;12.070;2023-05-10T09:55:18;15.30;99.90
16966;DHT22;8599;47.852;12.070;2023-05-10T09:57:46;15.40;99.90
16966;DHT22;8599;47.852;12.070;2023-05-10T10:00:18;15.50;99.90
16966;DHT22;8599;47.852;12.070;2023-05-10T10:02:47;15.60;99.90
16966;DHT22;8599;47.852;12.070;2023-05-10T10:05:14;15.70;99.90
16966;DHT22;8599;47.852;12.070;2023-05-10T10:07:41;15.90;99.90
16966;DHT22;8599;47.852;12.070;2023-05-10T10:10:09;16.00;99.90
16966;DHT22;8599;47.852;12.070;2023-05-10T10:12:39;16.00;99.90
16966;DHT22;8599;47.852;12.070;2023-05-10T10:15:07;16.00;99.90
16966;DHT22;8599;47.852;12.070;2023-05-10T10:17:36;16.00;99.90
16966;DHT22;8599;47.852;12.070;2023-05-10T10:20:05;15.70;99.90
16966;DHT22;8599;47.852;12.070;2023-05-10T10:22:33;15.70;99.90
16966;DHT22;8599;47.852;12.070;2023-05-10T10:24:59;15.60;99.90
16966;DHT22;8599;47.852;12.070;2023-05-10T10:27:34;15.60;99.90
16966;DHT22;8599;47.852;12.070;2023-05-10T10:30:07;15.50;99.90
16966;DHT22;8599;47.852;12.070;2023-05-10T10:35:41;15.40;99.90
16966;DHT22;8599;47.852;12.070;2023-05-10T10:38:09;15.30;99.90
16966;DHT22;8599;47.852;12.070;2023-05-10T10:40:36;15.20;99.90
16966;DHT22;8599;47.852;12.070;2023-05-10T10:43:22;15.00;99.90
16966;DHT22;8599;47.852;12.070;2023-05-10T10:46:10;14.90;99.90
16966;DHT22;8599;47.852;12.070;2023-05-10T10:48:37;14.80;99.90
16966;DHT22;8599;47.852;12.070;2023-05-10T10:51:06;14.60;99.90
16966;DHT22;8599;47.852;12.070;2023-05-10T10:53:33;14.60;99.90
16966;DHT22;8599;47.852;12.070;2023-05-10T10:56:06;14.70;99.90
16966;DHT22;8599;47.852;12.070;2023-05-10T10:58:35;14.80;99.90
16966;DHT22;8599;47.852;12.070;2023-05-10T11:01:13;14.90;99.90
16966;DHT22;8599;47.852;12.070;2023-05-10T11:03:41;15.00;99.90
16966;DHT22;8599;47.852;12.070;2023-05-10T11:06:09;15.10;99.90
16966;DHT22;8599;47.852;12.070;2023-05-10T11:08:42;15.10;99.90
16966;DHT22;8599;47.852;12.070;2023-05-10T11:11:14;15.10;99.90
16966;DHT22;8599;47.852;12.070;2023-05-10T11:13:43;15.20;99.90
16966;DHT22;8599;47.852;12.070;2023-05-10T11:16:18;15.10;99.90
16966;DHT22;8599;47.852;12.070;2023-05-10T11:18:58;15.10;99.90
16966;DHT22;8599;47.852;12.070;2023-05-10T11:21:26;15.20;99.90
16966;DHT22;8599;47.852;12.070;2023-05-10T11:23:54;15.20;99.90
16966;DHT22;8599;47.852;12.070;2023-05-10T11:26:23;15.30;99.90
16966;DHT22;8599;47.852;12.070;2023-05-10T11:28:53;15.30;99.90
16966;DHT22;8599;47.852;12.070;2023-05-10T11:31:21;15.30;99.90
16966;DHT22;8599;47.852;12.070;2023-05-10T11:33:51;15.50;99.90
16966;DHT22;8599;47.852;12.070;2023-05-10T11:36:20;15.40;99.90
16966;DHT22;8599;47.852;12.070;2023-05-10T11:38:48;15.60;99.90
16966;DHT22;8599;47.852;12.070;2023-05-10T11:41:17;15.70;99.90
16966;DHT22;8599;47.852;12.070;2023-05-10T11:43:47;15.90;99.90
16966;DHT22;8599;47.852;12.070;2023-05-10T11:46:16;15.80;99.90
16966;DHT22;8599;47.852;12.070;2023-05-10T11:48:46;15.60;99.90
16966;DHT22;8599;47.852;12.070;2023-05-10T11:51:13;15.60;99.90
16966;DHT22;8599;47.852;12.070;2023-05-10T11:53:41;15.80;99.90
16966;DHT22;8599;47.852;12.070;2023-05-10T11:56:10;15.70;99.90
16966;DHT22;8599;47.852;12.070;2023-05-10T11:58:39;15.50;99.90
16966;DHT22;8599;47.852;12.070;2023-05-10T12:01:07;15.40;99.90
16966;DHT22;8599;47.852;12.070;2023-05-10T12:03:35;15.30;99.90
16966;DHT22;8599;47.852;12.070;2023-05-10T12:06:02;15.30;99.90
16966;DHT22;8599;47.852;12.070;2023-05-10T12:08:30;15.30;99.90
16966;DHT22;8599;47.852;12.070;2023-05-10T12:11:04;15.20;99.90
16966;DHT22;8599;47.852;12.070;2023-05-10T12:13:37;15.20;99.90
16966;DHT22;8599;47.852;12.070;2023-05-10T12:16:13;15.30;99.90
16966;DHT22;8599;47.852;12.070;2023-05-10T12:18:40;15.30;99.90
16966;DHT22;8599;47.852;12.070;2023-05-10T12:21:09;15.20;99.90
16966;DHT22;8599;47.852;12.070;2023-05-10T12:23:36;15.00;99.90
16966;DHT22;8599;47.852;12.070;2023-05-10T12:26:04;14.80;99.90
16966;DHT22;8599;47.852;12.070;2023-05-10T12:28:33;14.60;99.90
16966;DHT22;8599;47.852;12.070;2023-05-10T12:31:00;14.50;99.90
16966;DHT22;8599;47.852;12.070;2023-05-10T12:33:35;14.40;99.90
16966;DHT22;8599;47.852;12.070;2023-05-10T12:36:04;14.50;99.90
16966;DHT22;8599;47.852;12.070;2023-05-10T12:38:33;14.40;99.90
16966;DHT22;8599;47.852;12.070;2023-05-10T12:41:02;14.40;99.90
16966;DHT22;8599;47.852;12.070;2023-05-10T12:43:29;14.40;99.90
16966;DHT22;8599;47.852;12.070;2023-05-10T12:45:57;14.40;99.90
16966;DHT22;8599;47.852;12.070;2023-05-10T12:48:24;14.30;99.90
16966;DHT22;8599;47.852;12.070;2023-05-10T12:50:51;14.40;99.90
16966;DHT22;8599;47.852;12.070;2023-05-10T12:53:18;14.50;99.90
16966;DHT22;8599;47.852;12.070;2023-05-10T12:55:45;14.60;99.90
16966;DHT22;8599;47.852;12.070;2023-05-10T12:58:12;14.50;99.90
16966;DHT22;8599;47.852;12.070;2023-05-10T13:00:38;14.50;99.90
16966;DHT22;8599;47.852;12.070;2023-05-10T13:03:07;14.50;99.90
16966;DHT22;8599;47.852;12.070;2023-05-10T13:05:33;14.60;99.90
16966;DHT22;8599;47.852;12.070;2023-05-10T13:08:00;14.70;99.90
16966;DHT22;8599;47.852;12.070;2023-05-10T13:10:29;14.70;99.90
16966;DHT22;8599;47.852;12.070;2023-05-10T13:12:57;14.70;99.90
16966;DHT22;8599;47.852;12.070;2023-05-10T13:15:24;14.70;99.90
16966;DHT22;8599;47.852;12.070;2023-05-10T13:17:51;14.70;99.90
16966;DHT22;8599;47.852;12.070;2023-05-10T13:20:19;14.70;99.90
16966;DHT22;8599;47.852;12.070;2023-05-10T13:22:46;14.70;99.90
16966;DHT22;8599;47.852;12.070;2023-05-10T13:25:13;14.70;99.90
16966;DHT22;8599;47.852;12.070;2023-05-10T13:27:40;14.70;99.90
16966;DHT22;8599;47.852;12.070;2023-05-10T13:30:08;14.60;99.90
16966;DHT22;8599;47.852;12.070;2023-05-10T13:32:35;14.70;99.90
16966;DHT22;8599;47.852;12.070;2023-05-10T13:35:02;14.80;99.90
16966;DHT22;8599;47.852;12.070;2023-05-10T13:37:31;14.80;99.90
16966;DHT22;8599;47.852;12.070;2023-05-10T13:40:00;14.80;99.90
16966;DHT22;8599;47.852;12.070;2023-05-10T13:42:27;14.80;99.90
16966;DHT22;8599;47.852;12.070;2023-05-10T13:44:54;14.90;99.90
16966;DHT22;8599;47.852;12.070;2023-05-10T13:47:21;14.90;99.90
16966;DHT22;8599;47.852;12.070;2023-05-10T13:49:48;15.00;99.90
16966;DHT22;8599;47.852;12.070;2023-05-10T13:52:15;14.90;99.90
16966;DHT22;8599;47.852;12.070;2023-05-10T13:54:43;14.80;99.90
16966;DHT22;8599;47.852;12.070;2023-05-10T13:57:09;14.80;99.90
16966;DHT22;8599;47.852;12.070;2023-05-10T13:59:39;14.60;99.90
16966;DHT22;8599;47.852;12.070;2023-05-10T14:02:06;14.60;99.90
16966;DHT22;8599;47.852;12.070;2023-05-10T14:04:33;14.50;99.90
16966;DHT22;8599;47.852;12.070;2023-05-10T14:07:01;14.50;99.90
16966;DHT22;8599;47.852;12.070;2023-05-10T14:09:27;14.40;99.90
16966;DHT22;8599;47.852;12.070;2023-05-10T14:11:55;14.40;99.90
16966;DHT22;8599;47.852;12.070;2023-05-10T14:14:23;14.30;99.90
16966;DHT22;8599;47.852;12.070;2023-05-10T14:16:50;14.20;99.90
16966;DHT22;8599;47.852;12.070;2023-05-10T14:19:17;14.20;99.90
16966;DHT22;8599;47.852;12.070;2023-05-10T14:21:44;14.30;99.90
16966;DHT22;8599;47.852;12.070;2023-05-10T14:24:10;14.30;99.90
16966;DHT22;8599;47.852;12.070;2023-05-10T14:26:37;14.40;99.90
16966;DHT22;8599;47.852;12.070;2023-05-10T14:29:05;14.40;99.90
16966;DHT22;8599;47.852;12.070;2023-05-10T14:31:32;14.40;99.90
16966;DHT22;8599;47.852;12.070;2023-05-10T14:33:59;14.40;99.90
16966;DHT22;8599;47.852;12.070;2023-05-10T14:36:26;14.40;99.90
16966;DHT22;8599;47.852;12.070;2023-05-10T14:38:52;14.40;99.90
16966;DHT22;8599;47.852;12.070;2023-05-10T14:41:19;14.40;99.90
16966;DHT22;8599;47.852;12.070;2023-05-10T14:43:46;14.40;99.90
16966;DHT22;8599;47.852;12.070;2023-05-10T14:46:14;14.30;99.90
16966;DHT22;8599;47.852;12.070;2023-05-10T14:48:41;14.40;99.90
16966;DHT22;8599;47.852;12.070;2023-05-10T14:51:08;14.30;99.90
16966;DHT22;8599;47.852;12.070;2023-05-10T14:53:34;14.30;99.90
16966;DHT22;8599;47.852;12.070;2023-05-10T14:56:01;14.40;99.90
16966;DHT22;8599;47.852;12.070;2023-05-10T14:58:28;14.40;99.90
16966;DHT22;8599;47.852;12.070;2023-05-10T15:00:55;14.50;99.90
16966;DHT22;8599;47.852;12.070;2023-05-10T15:03:24;14.40;99.90
16966;DHT22;8599;47.852;12.070;2023-05-10T15:05:51;14.40;99.90
16966;DHT22;8599;47.852;12.070;2023-05-10T15:08:18;14.40;99.90
16966;DHT22;8599;47.852;12.070;2023-05-10T15:10:45;14.40;99.90
16966;DHT22;8599;47.852;12.070;2023-05-10T15:13:13;14.40;99.90
16966;DHT22;8599;47.852;12.070;2023-05-10T15:15:39;14.40;99.90
16966;DHT22;8599;47.852;12.070;2023-05-10T15:18:06;14.30;99.90
16966;DHT22;8599;47.852;12.070;2023-05-10T15:20:34;14.40;99.90
16966;DHT22;8599;47.852;12.070;2023-05-10T15:23:01;14.50;99.90
16966;DHT22;8599;47.852;12.070;2023-05-10T15:25:28;14.50;99.90
16966;DHT22;8599;47.852;12.070;2023-05-10T15:27:55;14.50;99.90
16966;DHT22;8599;47.852;12.070;2023-05-10T15:30:22;14.50;99.90
16966;DHT22;8599;47.852;12.070;2023-05-10T15:32:48;14.50;99.90
16966;DHT22;8599;47.852;12.070;2023-05-10T15:35:16;14.50;99.90
16966;DHT22;8599;47.852;12.070;2023-05-10T15:37:45;14.50;99.90
16966;DHT22;8599;47.852;12.070;2023-05-10T15:40:12;14.50;99.90